Time;durP1;ratioP1;P1;durP2;ratioP2;P2;SDS_P1;SDS_P2;PMS_P1;PMS_P2;Temp;Humidity;BMP_temperature;BMP_pressure;BME280_temperature;BME280_humidity;BME280_pressure;Samples;Min_cycle;Max_cycle;Signal;HPM_P1;HPM_P2
2022/05/01 00:00:06;;;;;;;21.53;11.40;;;11.50;33.50;;;;;;4988164;28;20394;-76
2022/05/01 00:02:32;;;;;;;18.70;11.85;;;11.50;33.10;;;;;;4987709;28;20760;-76
2022/05/01 00:04:58;;;;;;;19.30;11.88;;;11.40;33.80;;;;;;4992479;28;20410;-76
2022/05/01 00:07:23;;;;;;;19.40;11.70;;;11.50;33.20;;;;;;4988406;28;20411;-75
2022/05/01 00:09:49;;;;;;;20.55;11.30;;;11.40;33.50;;;;;;4984164;28;20404;-76
2022/05/01 00:12:14;;;;;;;17.95;11.23;;;11.50;33.10;;;;;;4981850;28;20476;-76
2022/05/01 00:14:40;;;;;;;20.73;11.27;;;11.60;32.80;;;;;;4991347;28;20411;-76
2022/05/01 00:17:05;;;;;;;21.77;12.53;;;11.60;32.80;;;;;;4987881;28;20394;-76
2022/05/01 00:19:31;;;;;;;19.87;10.97;;;11.70;31.70;;;;;;4981151;28;20406;-75
2022/05/01 00:21:58;;;;;;;18.73;11.73;;;11.60;31.90;;;;;;4983206;28;20730;-75
2022/05/01 00:24:24;;;;;;;18.75;11.23;;;11.60;31.60;;;;;;5004205;28;20486;-75
2022/05/01 00:26:50;;;;;;;19.85;12.10;;;11.60;31.90;;;;;;5006390;28;20422;-75
2022/05/01 00:29:16;;;;;;;18.53;11.80;;;11.60;32.10;;;;;;4989379;28;20428;-75
2022/05/01 00:31:41;;;;;;;17.93;12.53;;;11.60;32.50;;;;;;4989876;28;20419;-76
2022/05/01 00:36:51;;;;;;;20.30;11.80;;;11.50;32.60;;;;;;4985138;28;20391;-75
2022/05/01 00:39:16;;;;;;;18.03;12.27;;;11.60;32.50;;;;;;4983013;28;20407;-75
2022/05/01 00:41:45;;;;;;;20.70;11.40;;;11.50;32.60;;;;;;4984338;28;20411;-75
2022/05/01 00:44:18;;;;;;;22.30;12.82;;;11.50;32.80;;;;;;4980815;28;20404;-76
2022/05/01 00:46:46;;;;;;;21.10;12.63;;;11.40;33.30;;;;;;4992785;28;20949;-76
2022/05/01 00:49:15;;;;;;;19.05;11.80;;;11.40;33.30;;;;;;4984175;28;20414;-76
2022/05/01 00:51:53;;;;;;;20.35;12.50;;;11.50;32.50;;;;;;4983561;28;20412;-76
2022/05/01 00:54:21;;;;;;;20.25;12.43;;;11.40;32.50;;;;;;4981883;28;20887;-75
2022/05/01 00:56:52;;;;;;;17.20;11.68;;;11.30;32.60;;;;;;4998205;28;20416;-75
2022/05/01 00:59:19;;;;;;;19.83;11.32;;;11.20;32.90;;;;;;4982426;28;20780;-75
2022/05/01 01:01:47;;;;;;;20.00;12.10;;;11.10;33.20;;;;;;4984511;28;20412;-76
2022/05/01 01:04:13;;;;;;;21.70;12.23;;;11.10;33.70;;;;;;5001004;28;20409;-77
2022/05/01 01:06:39;;;;;;;22.80;12.50;;;11.10;34.20;;;;;;4979221;28;20411;-76
2022/05/01 01:09:05;;;;;;;19.20;12.07;;;11.10;34.20;;;;;;4979874;28;20418;-76
2022/05/01 01:11:31;;;;;;;21.20;12.57;;;11.10;34.10;;;;;;4985868;28;20441;-76
2022/05/01 01:13:59;;;;;;;18.13;11.80;;;11.00;34.40;;;;;;4983922;28;20412;-76
2022/05/01 01:16:25;;;;;;;20.00;12.80;;;11.00;34.10;;;;;;4990237;28;20768;-75
2022/05/01 01:18:51;;;;;;;17.30;12.48;;;11.00;34.30;;;;;;4987276;28;20491;-76
2022/05/01 01:21:17;;;;;;;20.58;12.90;;;11.00;34.60;;;;;;4980672;28;20547;-76
2022/05/01 01:23:43;;;;;;;18.42;12.20;;;10.90;34.70;;;;;;4998672;28;20419;-76
2022/05/01 01:26:11;;;;;;;15.90;12.18;;;10.90;35.00;;;;;;4979043;28;20412;-76
2022/05/01 01:28:40;;;;;;;17.80;12.13;;;10.80;35.20;;;;;;4986278;28;20456;-76
2022/05/01 01:33:53;;;;;;;22.83;12.50;;;10.60;36.70;;;;;;4983479;28;20850;-76
2022/05/01 01:36:24;;;;;;;17.15;12.32;;;10.70;36.40;;;;;;4980048;28;20416;-76
2022/05/01 01:38:50;;;;;;;16.80;12.45;;;10.80;36.10;;;;;;4977736;28;20415;-76
2022/05/01 01:41:20;;;;;;;17.05;11.90;;;10.70;36.60;;;;;;4986944;28;20414;-76
2022/05/01 01:43:47;;;;;;;20.53;13.00;;;10.60;37.10;;;;;;4986336;28;20477;-76
2022/05/01 01:46:13;;;;;;;20.40;12.55;;;10.60;37.30;;;;;;4980584;28;20412;-76
2022/05/01 01:48:38;;;;;;;18.90;12.52;;;10.70;36.90;;;;;;4982856;28;20411;-76
2022/05/01 01:51:06;;;;;;;21.77;12.73;;;10.70;36.80;;;;;;4991196;28;20488;-76
2022/05/01 01:53:35;;;;;;;19.25;12.90;;;10.70;37.00;;;;;;4978914;28;20915;-76
2022/05/01 01:56:02;;;;;;;17.70;12.35;;;10.60;37.00;;;;;;4978209;28;20883;-76
2022/05/01 01:58:29;;;;;;;20.20;13.40;;;10.60;37.40;;;;;;4986048;28;20453;-76
2022/05/01 02:00:56;;;;;;;25.33;13.35;;;10.50;37.90;;;;;;4986927;28;20399;-76
2022/05/01 02:03:22;;;;;;;20.50;13.37;;;10.40;38.40;;;;;;4980611;28;20465;-77
2022/05/01 02:05:48;;;;;;;27.55;13.45;;;10.50;38.70;;;;;;4978487;28;20873;-76
2022/05/01 02:08:15;;;;;;;20.58;12.80;;;10.50;37.80;;;;;;4982649;28;20418;-75
2022/05/01 02:10:41;;;;;;;20.67;13.50;;;10.40;38.40;;;;;;4989654;28;20754;-76
2022/05/01 02:13:07;;;;;;;20.90;13.10;;;10.40;38.50;;;;;;5007568;28;20500;-74
2022/05/01 02:15:34;;;;;;;22.60;13.10;;;10.30;39.00;;;;;;4988489;28;20418;-77
2022/05/01 02:18:01;;;;;;;22.42;13.38;;;10.30;39.20;;;;;;4989250;28;20417;-76
2022/05/01 02:20:28;;;;;;;19.92;13.88;;;10.20;39.70;;;;;;4993520;28;20432;-75
2022/05/01 02:22:54;;;;;;;22.30;13.35;;;10.10;40.40;;;;;;4985543;28;20426;-76
2022/05/01 02:25:21;;;;;;;21.08;13.63;;;10.00;41.60;;;;;;4988343;28;20410;-76
2022/05/01 02:27:47;;;;;;;23.58;14.15;;;9.90;42.40;;;;;;4990300;28;20438;-75
2022/05/01 02:30:13;;;;;;;22.48;13.90;;;9.80;43.50;;;;;;4990698;28;20514;-76
2022/05/01 02:32:41;;;;;;;22.42;13.80;;;9.60;45.30;;;;;;4992132;28;20414;-76
2022/05/01 02:35:09;;;;;;;22.10;13.63;;;9.80;44.30;;;;;;4981173;28;20427;-75
2022/05/01 02:37:35;;;;;;;20.70;14.07;;;9.60;45.30;;;;;;4986706;28;20407;-75
2022/05/01 02:40:01;;;;;;;24.83;14.13;;;9.70;45.10;;;;;;4984960;28;20477;-75
2022/05/01 02:42:27;;;;;;;25.08;14.48;;;9.60;45.30;;;;;;4991889;28;20422;-75
2022/05/01 02:44:52;;;;;;;24.80;15.73;;;9.40;47.00;;;;;;4990513;28;20419;-75
2022/05/01 02:47:18;;;;;;;26.53;15.20;;;9.00;49.70;;;;;;5000934;28;20461;-75
2022/05/01 02:49:43;;;;;;;25.10;15.10;;;8.80;52.00;;;;;;4999099;28;20400;-75
2022/05/01 02:52:09;;;;;;;25.37;15.83;;;8.60;54.00;;;;;;4995740;28;20781;-75
2022/05/01 02:54:35;;;;;;;20.73;14.77;;;8.70;54.60;;;;;;4990973;28;20410;-75
2022/05/01 02:57:02;;;;;;;25.80;14.75;;;8.70;55.30;;;;;;4986919;28;20414;-76
2022/05/01 02:59:27;;;;;;;25.80;15.73;;;8.40;56.10;;;;;;4990174;28;20966;-76
2022/05/01 03:01:55;;;;;;;26.17;16.10;;;8.40;58.20;;;;;;4983172;28;20499;-76
2022/05/01 03:04:21;;;;;;;27.88;15.43;;;8.60;58.00;;;;;;4994925;28;20485;-75
2022/05/01 03:06:47;;;;;;;26.67;15.50;;;8.50;57.50;;;;;;5001590;28;20410;-75
2022/05/01 03:09:13;;;;;;;24.77;15.30;;;8.60;57.70;;;;;;4980651;28;20956;-75
2022/05/01 03:11:38;;;;;;;22.77;15.40;;;8.50;58.30;;;;;;5004172;28;20409;-76
2022/05/01 03:14:04;;;;;;;23.73;15.37;;;8.50;58.10;;;;;;4990274;28;20571;-75
2022/05/01 03:16:30;;;;;;;27.15;16.17;;;8.80;55.20;;;;;;4988428;28;20752;-77
2022/05/01 03:24:24;;;;;;;28.75;16.00;;;9.10;52.80;;;;;;4984865;28;20779;-77
2022/05/01 03:26:50;;;;;;;24.58;15.68;;;8.90;54.50;;;;;;4995366;28;20490;-75
2022/05/01 03:29:16;;;;;;;27.20;16.10;;;8.80;55.20;;;;;;4990534;28;20431;-75
2022/05/01 03:31:42;;;;;;;25.23;16.27;;;8.70;56.70;;;;;;4998383;28;20403;-75
2022/05/01 03:34:08;;;;;;;26.35;16.60;;;8.80;56.10;;;;;;5011429;28;20399;-75
2022/05/01 03:36:34;;;;;;;28.13;15.70;;;9.00;54.60;;;;;;5000642;28;20469;-75
2022/05/01 03:39:00;;;;;;;25.33;16.23;;;9.20;53.10;;;;;;4994622;28;20398;-76
2022/05/01 03:41:28;;;;;;;25.70;15.40;;;9.10;53.00;;;;;;4990159;28;20395;-77
2022/05/01 03:43:53;;;;;;;25.70;16.90;;;8.90;55.40;;;;;;4997189;28;20403;-75
2022/05/01 03:46:23;;;;;;;26.43;16.77;;;8.80;56.60;;;;;;5005881;28;20419;-75
2022/05/01 03:48:52;;;;;;;28.13;16.65;;;8.80;58.00;;;;;;4996418;28;20456;-74
2022/05/01 03:51:18;;;;;;;25.05;15.55;;;9.00;55.50;;;;;;5000227;28;20402;-75
2022/05/01 03:53:45;;;;;;;28.05;16.38;;;8.90;55.80;;;;;;4991732;28;20444;-76
2022/05/01 03:56:11;;;;;;;24.23;16.83;;;8.80;56.90;;;;;;5018026;28;20420;-76
2022/05/01 03:58:37;;;;;;;27.30;16.45;;;8.70;57.80;;;;;;4995460;28;20477;-75
2022/05/01 04:01:02;;;;;;;26.25;16.23;;;8.70;57.90;;;;;;4998139;28;20475;-75
2022/05/01 04:03:28;;;;;;;26.30;16.20;;;8.70;58.60;;;;;;4996440;28;20405;-77
2022/05/01 04:05:54;;;;;;;25.05;16.70;;;9.00;56.70;;;;;;4996717;28;20512;-77
2022/05/01 04:08:20;;;;;;;26.80;16.65;;;9.30;52.70;;;;;;5004606;28;20410;-76
2022/05/01 04:10:46;;;;;;;24.20;16.20;;;9.40;51.30;;;;;;4981493;28;20397;-76
2022/05/01 04:13:13;;;;;;;24.17;15.85;;;9.40;52.20;;;;;;4982963;28;20504;-76
2022/05/01 04:15:40;;;;;;;24.08;16.73;;;9.20;52.50;;;;;;5010343;28;20441;-77
2022/05/01 04:18:08;;;;;;;26.33;17.30;;;9.10;53.70;;;;;;4991472;28;20402;-76
2022/05/01 04:20:38;;;;;;;28.50;17.42;;;9.10;53.70;;;;;;4985676;28;20433;-77
2022/05/01 04:23:06;;;;;;;27.90;17.42;;;9.10;55.00;;;;;;4989216;28;20403;-76
2022/05/01 04:25:32;;;;;;;26.45;15.73;;;9.40;54.10;;;;;;4992922;28;20441;-76
2022/05/01 04:28:05;;;;;;;24.00;15.80;;;9.80;49.70;;;;;;4989514;28;20390;-77
2022/05/01 04:30:34;;;;;;;25.15;15.80;;;10.00;47.30;;;;;;5013093;23;20924;-73
2022/05/01 04:33:06;;;;;;;22.83;16.00;;;9.90;48.10;;;;;;4998262;28;20497;-75
2022/05/01 04:35:40;;;;;;;24.58;15.10;;;9.90;46.90;;;;;;5001306;28;20421;-74
2022/05/01 04:38:16;;;;;;;28.63;16.00;;;10.00;46.30;;;;;;5006248;28;20414;-75
2022/05/01 04:40:47;;;;;;;27.63;17.30;;;9.90;46.90;;;;;;4998006;28;20406;-75
2022/05/01 04:43:24;;;;;;;22.25;15.77;;;9.90;48.20;;;;;;5002850;28;20396;-76
2022/05/01 04:45:52;;;;;;;28.42;16.40;;;10.20;45.90;;;;;;4998271;28;20548;-74
2022/05/01 04:48:19;;;;;;;28.35;16.45;;;10.50;43.60;;;;;;4998401;28;20436;-74
2022/05/01 04:50:46;;;;;;;24.38;16.52;;;10.80;41.30;;;;;;5000805;28;20767;-74
2022/05/01 04:53:13;;;;;;;24.88;15.95;;;10.80;40.00;;;;;;4997801;28;20414;-75
2022/05/01 04:55:41;;;;;;;31.42;16.10;;;10.90;40.60;;;;;;5002174;28;20409;-75
2022/05/01 04:58:08;;;;;;;23.90;15.20;;;10.80;40.90;;;;;;5002977;28;20427;-75
2022/05/01 05:00:35;;;;;;;23.77;15.75;;;10.80;41.20;;;;;;5005279;28;20403;-76
2022/05/01 05:03:02;;;;;;;23.10;15.60;;;10.80;40.20;;;;;;5006815;28;20420;-74
2022/05/01 05:05:29;;;;;;;26.88;16.63;;;10.80;41.30;;;;;;5002563;28;20410;-75
2022/05/01 05:07:55;;;;;;;27.75;17.52;;;10.90;41.20;;;;;;4997966;28;20437;-75
2022/05/01 05:10:21;;;;;;;25.13;17.10;;;10.80;41.50;;;;;;5005522;28;20489;-75
2022/05/01 05:12:48;;;;;;;30.13;17.67;;;10.80;40.50;;;;;;5015863;28;20416;-74
2022/05/01 05:15:20;;;;;;;30.42;17.15;;;10.80;41.30;;;;;;5007145;28;20419;-73
2022/05/01 05:17:46;;;;;;;28.48;16.90;;;10.80;41.10;;;;;;5000138;28;20695;-73
2022/05/01 05:20:12;;;;;;;33.45;17.27;;;10.80;40.50;;;;;;4990445;28;20406;-74
2022/05/01 05:22:41;;;;;;;30.27;19.00;;;10.80;41.70;;;;;;5007708;28;20559;-74
2022/05/01 05:25:10;;;;;;;24.90;17.40;;;10.80;42.50;;;;;;5007508;28;20408;-75
2022/05/01 05:27:35;;;;;;;26.30;17.98;;;10.80;42.70;;;;;;5009973;28;20519;-75
2022/05/01 05:30:01;;;;;;;27.80;17.93;;;10.80;42.90;;;;;;5011999;28;20408;-75
2022/05/01 05:32:27;;;;;;;29.73;18.20;;;10.90;42.60;;;;;;5005807;28;20496;-75
2022/05/01 05:34:53;;;;;;;29.27;17.70;;;10.80;43.40;;;;;;4986671;28;20501;-74
2022/05/01 05:37:19;;;;;;;36.80;17.45;;;10.90;42.50;;;;;;4999008;28;20411;-74
2022/05/01 05:39:45;;;;;;;27.35;16.83;;;10.80;41.10;;;;;;5005330;28;20439;-75
2022/05/01 05:42:11;;;;;;;27.23;16.58;;;10.90;41.00;;;;;;5004989;28;20830;-75
2022/05/01 05:44:37;;;;;;;28.50;16.90;;;11.10;38.90;;;;;;5001300;28;20497;-74
2022/05/01 05:47:03;;;;;;;25.30;16.02;;;11.20;39.00;;;;;;5001379;28;20437;-74
2022/05/01 05:49:29;;;;;;;21.83;15.50;;;11.30;38.40;;;;;;5005419;28;20406;-74
2022/05/01 05:51:54;;;;;;;23.30;15.10;;;11.40;35.30;;;;;;5000474;28;20450;-73
2022/05/01 05:54:20;;;;;;;24.73;15.07;;;11.40;35.00;;;;;;5002135;28;20430;-74
2022/05/01 05:56:45;;;;;;;24.00;14.47;;;11.50;35.30;;;;;;5007642;28;20409;-75
2022/05/01 05:59:11;;;;;;;22.85;13.90;;;11.40;33.90;;;;;;5000917;28;20405;-76
2022/05/01 06:01:37;;;;;;;24.92;14.45;;;11.40;33.20;;;;;;5003707;28;20407;-74
2022/05/01 06:04:03;;;;;;;26.37;15.40;;;11.30;34.40;;;;;;5006784;28;20908;-75
2022/05/01 06:06:29;;;;;;;26.15;15.45;;;11.30;35.00;;;;;;5003317;28;20544;-74
2022/05/01 06:08:55;;;;;;;28.33;15.90;;;11.50;34.30;;;;;;5012703;28;20421;-76
2022/05/01 06:11:20;;;;;;;24.37;15.00;;;11.80;33.90;;;;;;5009253;28;20421;-74
2022/05/01 06:13:46;;;;;;;27.37;15.80;;;11.80;33.30;;;;;;5014559;28;20757;-76
2022/05/01 06:16:11;;;;;;;21.23;14.23;;;11.90;32.70;;;;;;5016195;28;20420;-77
2022/05/01 06:18:37;;;;;;;22.83;14.50;;;12.20;32.00;;;;;;5021434;28;21021;-74
2022/05/01 06:21:02;;;;;;;22.40;13.93;;;12.40;30.40;;;;;;5007695;28;20879;-76
2022/05/01 06:23:28;;;;;;;22.33;14.57;;;12.30;29.60;;;;;;5021046;28;20434;-75
2022/05/01 06:25:54;;;;;;;24.30;14.50;;;12.30;30.10;;;;;;5013961;28;20418;-75
2022/05/01 06:28:20;;;;;;;21.10;14.50;;;12.30;30.00;;;;;;5007554;28;20418;-74
2022/05/01 06:30:47;;;;;;;23.77;14.60;;;12.40;30.30;;;;;;5006976;28;20419;-74
2022/05/01 06:33:15;;;;;;;20.13;13.80;;;12.40;29.60;;;;;;5004296;28;20413;-74
2022/05/01 06:35:41;;;;;;;22.77;14.57;;;12.40;28.90;;;;;;5002200;28;20440;-74
2022/05/01 06:38:07;;;;;;;23.48;13.10;;;12.40;28.80;;;;;;4993305;28;20852;-75
2022/05/01 06:40:34;;;;;;;20.15;12.70;;;12.50;28.10;;;;;;5000054;28;20430;-75
2022/05/01 06:43:00;;;;;;;22.10;13.38;;;12.60;28.30;;;;;;4988217;28;20418;-74
2022/05/01 06:45:25;;;;;;;20.20;13.60;;;12.40;28.50;;;;;;4994781;28;20501;-73
2022/05/01 06:47:51;;;;;;;19.97;13.83;;;12.40;29.30;;;;;;4990541;28;20424;-73
2022/05/01 06:50:17;;;;;;;21.70;14.20;;;12.60;28.50;;;;;;4987241;28;20418;-74
2022/05/01 06:52:42;;;;;;;18.27;13.00;;;12.60;28.20;;;;;;4990055;28;20851;-73
2022/05/01 06:55:09;;;;;;;27.60;13.80;;;12.80;27.60;;;;;;4991734;28;20466;-73
2022/05/01 06:57:34;;;;;;;23.40;13.63;;;13.00;28.10;;;;;;4985432;28;20817;-74
2022/05/01 07:00:00;;;;;;;17.73;12.20;;;13.30;27.10;;;;;;4986120;28;20423;-74
2022/05/01 07:02:26;;;;;;;21.50;13.15;;;13.50;25.10;;;;;;4988288;28;20407;-74
2022/05/01 07:04:52;;;;;;;17.30;12.67;;;13.70;24.50;;;;;;4993647;28;20459;-73
2022/05/01 07:07:17;;;;;;;23.38;14.98;;;13.90;23.90;;;;;;4991210;28;20459;-74
2022/05/01 07:09:43;;;;;;;19.63;13.20;;;14.10;24.20;;;;;;4992703;28;20510;-74
2022/05/01 07:12:10;;;;;;;18.88;13.30;;;14.10;23.90;;;;;;4991652;28;20405;-78
2022/05/01 07:14:38;;;;;;;22.15;14.35;;;14.20;23.50;;;;;;4992507;28;20413;-74
2022/05/01 07:17:03;;;;;;;19.55;12.82;;;14.40;23.10;;;;;;5012885;28;20409;-75
2022/05/01 07:19:29;;;;;;;17.47;12.57;;;14.40;23.00;;;;;;4995491;28;20761;-74
2022/05/01 07:21:55;;;;;;;19.20;12.23;;;14.50;23.10;;;;;;4990917;28;20416;-74
2022/05/01 07:24:20;;;;;;;19.47;13.10;;;14.80;22.20;;;;;;5004961;28;20489;-73
2022/05/01 07:26:46;;;;;;;20.27;12.87;;;14.90;21.30;;;;;;5003732;28;20417;-74
2022/05/01 07:29:12;;;;;;;18.70;13.50;;;15.10;21.40;;;;;;5000793;28;20418;-74
2022/05/01 07:31:37;;;;;;;21.93;13.20;;;15.10;21.00;;;;;;4990595;28;20504;-74
2022/05/01 07:34:03;;;;;;;20.23;13.27;;;15.30;20.90;;;;;;4996002;28;20956;-75
2022/05/01 07:36:28;;;;;;;19.85;13.15;;;15.60;20.00;;;;;;4996522;28;20505;-73
2022/05/01 07:38:54;;;;;;;19.25;12.93;;;15.80;19.90;;;;;;5000929;28;20400;-74
2022/05/01 07:41:20;;;;;;;19.55;12.77;;;16.00;19.10;;;;;;4999178;28;20476;-74
2022/05/01 07:43:46;;;;;;;20.13;12.93;;;16.00;18.70;;;;;;4998014;28;20519;-73
2022/05/01 07:46:12;;;;;;;18.40;12.55;;;15.80;19.60;;;;;;4990881;28;20412;-77
2022/05/01 07:48:39;;;;;;;19.98;12.82;;;15.60;20.40;;;;;;5003515;28;20417;-78
2022/05/01 07:51:04;;;;;;;19.27;12.70;;;15.90;20.00;;;;;;5001384;28;20394;-77
2022/05/01 07:53:30;;;;;;;22.40;13.25;;;16.00;18.90;;;;;;5009001;28;20827;-78
2022/05/01 07:55:57;;;;;;;18.27;12.15;;;15.90;19.60;;;;;;5011364;28;20420;-75
2022/05/01 07:58:23;;;;;;;18.85;13.10;;;15.60;20.20;;;;;;5011346;28;20403;-76
2022/05/01 08:00:48;;;;;;;17.10;12.60;;;15.80;19.70;;;;;;4995468;28;20415;-79
2022/05/01 08:06:00;;;;;;;20.13;13.50;;;15.90;20.00;;;;;;5003742;28;20417;-80
2022/05/01 08:08:26;;;;;;;19.42;13.05;;;15.90;20.30;;;;;;5020905;28;20478;-81
2022/05/01 08:10:52;;;;;;;16.13;12.00;;;15.80;20.20;;;;;;5001781;28;20417;-76
2022/05/01 08:13:18;;;;;;;19.25;13.20;;;15.80;19.80;;;;;;5002947;28;20407;-78
2022/05/01 08:15:43;;;;;;;18.95;13.27;;;15.50;20.20;;;;;;4996693;28;20415;-79
2022/05/01 08:21:10;;;;;;;18.50;12.40;;;15.90;19.70;;;;;;5004527;28;20412;-77
2022/05/01 08:23:37;;;;;;;19.00;12.60;;;15.90;20.50;;;;;;5006895;28;20406;-78
2022/05/01 08:26:06;;;;;;;17.73;12.70;;;15.60;20.30;;;;;;4994360;28;20438;-79
2022/05/01 08:28:32;;;;;;;20.35;12.70;;;15.20;19.80;;;;;;5012743;28;20418;-78
2022/05/01 08:30:58;;;;;;;15.75;12.50;;;14.90;20.20;;;;;;4991421;28;20858;-79
2022/05/01 08:33:24;;;;;;;18.00;12.20;;;14.90;22.10;;;;;;4996110;28;20450;-77
2022/05/01 08:35:50;;;;;;;19.27;12.70;;;14.80;21.30;;;;;;4992582;28;20421;-77
2022/05/01 08:38:16;;;;;;;19.13;13.25;;;14.70;20.50;;;;;;4991262;28;20402;-80
2022/05/01 08:40:46;;;;;;;18.45;12.93;;;14.70;20.80;;;;;;5002230;28;20414;-79
2022/05/01 08:43:17;;;;;;;20.10;12.97;;;14.60;22.50;;;;;;4997278;28;20421;-77
2022/05/01 08:46:20;;;;;;;18.63;13.00;;;14.90;21.90;;;;;;5007355;28;20476;-77
2022/05/01 08:48:55;;;;;;;17.50;12.38;;;15.30;20.80;;;;;;4997352;28;20421;-76
2022/05/01 08:51:22;;;;;;;21.02;12.90;;;15.60;19.30;;;;;;4998528;28;20427;-75
2022/05/01 08:53:48;;;;;;;16.63;11.93;;;16.10;18.10;;;;;;5009495;28;20504;-75
2022/05/01 08:56:15;;;;;;;17.27;12.80;;;16.20;16.90;;;;;;5003069;28;20419;-75
2022/05/01 08:58:41;;;;;;;17.92;12.25;;;16.00;16.50;;;;;;4996906;28;20421;-78
2022/05/01 09:01:11;;;;;;;20.00;11.90;;;15.80;17.60;;;;;;5000444;28;20495;-78
2022/05/01 09:03:39;;;;;;;18.87;10.90;;;15.70;17.50;;;;;;4997722;28;20461;-78
2022/05/01 09:06:05;;;;;;;16.98;11.38;;;15.40;17.90;;;;;;5007708;28;20422;-79
2022/05/01 09:08:30;;;;;;;20.10;12.17;;;15.30;18.90;;;;;;5009122;28;20461;-75
2022/05/01 09:10:56;;;;;;;18.60;11.90;;;15.50;17.90;;;;;;5009573;28;20408;-82
2022/05/01 09:13:25;;;;;;;19.60;12.17;;;15.30;18.20;;;;;;5002853;28;20423;-79
2022/05/01 09:15:52;;;;;;;19.92;12.70;;;15.10;17.80;;;;;;4994333;28;20417;-79
2022/05/01 09:18:18;;;;;;;19.05;12.75;;;15.20;18.10;;;;;;5009468;28;20406;-78
2022/05/01 09:21:03;;;;;;;19.30;12.73;;;15.40;17.80;;;;;;5012150;28;20402;-78
2022/05/01 09:23:43;;;;;;;19.75;12.32;;;15.30;17.30;;;;;;5010685;28;20398;-76
2022/05/01 09:26:11;;;;;;;19.35;12.80;;;15.30;16.50;;;;;;4998899;28;20824;-77
2022/05/01 09:28:46;;;;;;;18.83;11.57;;;15.20;16.70;;;;;;4999644;28;20492;-75
2022/05/01 09:31:11;;;;;;;17.33;12.15;;;15.00;16.70;;;;;;4990169;28;20426;-76
2022/05/01 09:33:37;;;;;;;21.73;12.80;;;15.10;17.20;;;;;;4999085;28;20954;-76
2022/05/01 09:36:03;;;;;;;22.17;14.68;;;15.30;16.30;;;;;;5001833;28;20485;-77
2022/05/01 09:38:28;;;;;;;18.77;13.55;;;15.50;15.10;;;;;;5002929;28;20909;-76
2022/05/01 09:40:58;;;;;;;19.45;12.93;;;15.60;15.50;;;;;;4998991;28;20488;-75
2022/05/01 09:43:47;;;;;;;21.35;13.30;;;15.80;15.30;;;;;;4999998;28;20466;-77
2022/05/01 09:46:14;;;;;;;18.77;13.55;;;15.60;15.80;;;;;;5008506;28;20394;-79
2022/05/01 09:48:41;;;;;;;20.63;14.43;;;15.70;15.00;;;;;;5007000;28;20443;-78
2022/05/01 09:51:18;;;;;;;22.10;14.52;;;15.50;15.90;;;;;;5009389;28;20503;-78
2022/05/01 09:53:44;;;;;;;17.30;13.50;;;15.70;14.90;;;;;;5012559;28;20400;-79
2022/05/01 09:56:11;;;;;;;17.43;13.53;;;15.70;15.20;;;;;;5007324;28;20504;-76
2022/05/01 09:58:43;;;;;;;22.35;13.30;;;15.80;15.10;;;;;;5004182;28;20415;-78
2022/05/01 10:01:14;;;;;;;21.88;13.50;;;16.00;14.70;;;;;;5002064;28;20494;-81
2022/05/01 10:03:46;;;;;;;22.00;12.05;;;16.20;14.00;;;;;;5006741;28;20443;-81
2022/05/01 10:06:16;;;;;;;20.73;13.40;;;16.00;14.50;;;;;;5003382;28;20482;-81
2022/05/01 10:08:43;;;;;;;16.85;12.30;;;16.30;14.70;;;;;;5006497;28;20405;-81
2022/05/01 10:11:14;;;;;;;16.83;12.10;;;16.40;13.30;;;;;;5003892;28;20463;-81
2022/05/01 10:13:40;;;;;;;18.33;13.52;;;16.40;11.60;;;;;;5007734;28;20413;-81
2022/05/01 10:16:09;;;;;;;20.60;13.10;;;16.80;12.20;;;;;;4996687;28;20504;-79
2022/05/01 10:18:36;;;;;;;17.58;12.82;;;17.20;11.10;;;;;;5005907;28;20419;-74
2022/05/01 10:21:02;;;;;;;20.35;13.70;;;17.10;10.70;;;;;;5006343;28;20758;-77
2022/05/01 10:23:29;;;;;;;16.02;11.40;;;17.60;10.50;;;;;;5012679;28;20398;-82
2022/05/01 10:26:20;;;;;;;15.20;10.93;;;17.70;7.90;;;;;;5007170;28;20446;-80
2022/05/01 10:29:20;;;;;;;18.05;11.90;;;17.70;8.00;;;;;;4991961;28;20779;-84
2022/05/01 10:32:24;;;;;;;17.90;11.00;;;17.70;10.00;;;;;;5019447;23;20438;-78
2022/05/01 10:35:35;;;;;;;18.27;12.75;;;17.20;8.20;;;;;;4999239;28;20763;-76
2022/05/01 10:38:23;;;;;;;20.15;12.00;;;17.30;8.70;;;;;;5000517;28;20457;-76
2022/05/01 10:40:51;;;;;;;17.17;12.50;;;17.70;7.30;;;;;;5000483;28;20398;-77
2022/05/01 10:43:27;;;;;;;15.10;11.77;;;17.90;7.10;;;;;;5003024;28;20398;-75
2022/05/01 10:46:01;;;;;;;13.80;11.40;;;18.40;6.60;;;;;;5001803;28;20581;-76
2022/05/01 10:48:31;;;;;;;16.38;11.85;;;18.90;5.80;;;;;;5010121;28;20466;-76
2022/05/01 10:51:36;;;;;;;20.70;12.30;;;18.70;5.50;;;;;;5005166;28;20398;-75
2022/05/01 10:54:10;;;;;;;19.75;12.30;;;19.00;5.00;;;;;;5009940;28;20919;-75
2022/05/01 10:57:07;;;;;;;16.15;11.80;;;18.90;5.60;;;;;;5010337;28;20912;-76
2022/05/01 10:59:35;;;;;;;16.37;11.73;;;18.60;7.30;;;;;;5008547;28;20519;-75
2022/05/01 11:02:03;;;;;;;16.10;11.95;;;18.20;6.30;;;;;;5008024;28;20492;-75
2022/05/01 11:04:42;;;;;;;16.88;11.63;;;18.30;7.00;;;;;;5006742;28;20444;-76
2022/05/01 11:07:12;;;;;;;18.20;12.07;;;18.50;6.40;;;;;;5009909;28;20408;-77
2022/05/01 11:09:39;;;;;;;16.33;12.07;;;18.30;6.50;;;;;;5006790;28;20444;-77
2022/05/01 11:12:10;;;;;;;19.10;13.48;;;18.20;7.60;;;;;;5009212;28;20478;-76
2022/05/01 11:14:56;;;;;;;20.03;13.50;;;18.00;8.80;;;;;;5016227;28;20657;-77
2022/05/01 11:17:36;;;;;;;24.00;13.82;;;18.10;8.10;;;;;;5019804;28;20464;-75
2022/05/01 11:20:10;;;;;;;15.55;12.20;;;18.40;7.50;;;;;;5026527;28;20749;-77
2022/05/01 11:22:36;;;;;;;21.25;13.50;;;18.50;6.90;;;;;;5025303;28;20850;-76
2022/05/01 11:25:03;;;;;;;21.58;13.73;;;18.60;7.60;;;;;;5025325;28;20428;-77
2022/05/01 11:27:49;;;;;;;23.40;14.10;;;18.40;7.00;;;;;;5015673;28;20397;-77
2022/05/01 11:30:27;;;;;;;18.88;13.43;;;18.10;8.20;;;;;;5027206;28;20483;-77
2022/05/01 11:33:06;;;;;;;19.60;13.93;;;18.40;8.10;;;;;;5033661;28;20408;-77
2022/05/01 11:35:56;;;;;;;21.02;14.00;;;18.30;8.00;;;;;;5020317;28;20438;-77
2022/05/01 11:38:23;;;;;;;23.30;13.80;;;18.20;7.60;;;;;;5015333;28;20462;-76
2022/05/01 11:41:00;;;;;;;20.00;12.70;;;18.10;8.70;;;;;;5014561;28;20738;-77
2022/05/01 11:43:28;;;;;;;19.23;12.43;;;18.20;8.20;;;;;;5010683;28;20393;-77
2022/05/01 11:45:55;;;;;;;20.90;13.90;;;18.40;8.00;;;;;;5007405;28;20407;-77
2022/05/01 11:48:21;;;;;;;19.33;13.18;;;18.50;8.40;;;;;;5011913;28;20784;-77
2022/05/01 11:50:52;;;;;;;19.48;14.18;;;18.40;7.80;;;;;;5011622;28;20409;-77
2022/05/01 11:53:23;;;;;;;17.45;13.07;;;18.60;7.30;;;;;;5011744;28;20459;-76
2022/05/01 12:04:33;;;;;;;20.90;14.32;;;17.60;9.40;;;;;;5011766;28;20800;-77
2022/05/01 12:06:59;;;;;;;18.52;13.57;;;17.20;10.70;;;;;;5017600;28;20496;-77
2022/05/01 12:09:28;;;;;;;19.50;14.15;;;17.20;11.00;;;;;;5022477;28;20431;-76
2022/05/01 12:11:54;;;;;;;19.08;13.75;;;17.30;10.70;;;;;;5018645;28;20409;-77
2022/05/01 12:14:20;;;;;;;19.70;13.23;;;17.40;10.50;;;;;;5017882;28;20936;-77
2022/05/01 12:16:46;;;;;;;20.60;14.77;;;17.40;10.40;;;;;;5018121;28;20412;-76
2022/05/01 12:19:12;;;;;;;23.00;13.27;;;17.40;9.90;;;;;;5013906;28;20913;-76
2022/05/01 12:21:38;;;;;;;19.73;14.20;;;17.30;9.90;;;;;;5013883;28;20420;-76
2022/05/01 12:24:05;;;;;;;18.17;14.67;;;17.60;9.80;;;;;;5010407;28;20897;-77
2022/05/01 12:26:34;;;;;;;20.75;13.68;;;17.90;8.90;;;;;;5010523;28;20408;-77
2022/05/01 12:29:01;;;;;;;18.95;14.23;;;18.40;8.90;;;;;;5014818;28;20552;-77
2022/05/01 12:31:28;;;;;;;21.00;14.10;;;18.20;8.70;;;;;;5005145;28;20416;-77
2022/05/01 12:33:54;;;;;;;17.10;12.73;;;17.90;9.10;;;;;;5005819;28;20505;-76
2022/05/01 12:36:27;;;;;;;21.83;14.27;;;17.60;9.50;;;;;;5007453;28;20407;-77
2022/05/01 12:39:03;;;;;;;16.93;12.90;;;17.80;9.60;;;;;;5010997;28;20411;-77
2022/05/01 12:44:14;;;;;;;18.55;13.70;;;17.10;10.30;;;;;;5006463;28;20953;-77
2022/05/01 12:46:51;;;;;;;20.23;14.10;;;16.80;11.00;;;;;;5010192;28;20410;-77
2022/05/01 12:49:29;;;;;;;21.13;14.30;;;16.90;11.70;;;;;;5004524;28;20404;-78
2022/05/01 12:51:54;;;;;;;22.88;14.55;;;17.10;11.50;;;;;;5005900;28;20418;-76
2022/05/01 12:54:20;;;;;;;18.67;13.93;;;16.90;11.40;;;;;;5009441;28;20893;-77
2022/05/01 12:56:46;;;;;;;21.13;14.37;;;16.90;11.30;;;;;;4997770;28;20414;-77
2022/05/01 12:59:31;;;;;;;22.87;14.00;;;17.00;11.80;;;;;;5000871;28;20921;-78
2022/05/01 13:01:58;;;;;;;21.88;13.95;;;16.80;11.80;;;;;;5007691;28;20462;-76
2022/05/01 13:04:29;;;;;;;19.90;14.50;;;17.20;10.90;;;;;;5015600;28;20447;-76